Time;durP1;ratioP1;P1;durP2;ratioP2;P2;SDS_P1;SDS_P2;PMS_P1;PMS_P2;Temp;Humidity;BMP_temperature;BMP_pressure;BME280_temperature;BME280_humidity;BME280_pressure;Samples;Min_cycle;Max_cycle;Signal;HPM_P1;HPM_P2
2022/12/12 00:00:11;;;;;;;;;;;;;;;;;;5070588;28;19919;-60
2022/12/12 00:02:36;;;;;;;;;;;;;;;;;;5071121;28;19908;-58
2022/12/12 00:05:01;;;;;;;;;;;;;;;;;;5068509;28;20377;-58
2022/12/12 00:07:26;;;;;;;;;;;;;;;;;;5063870;28;19908;-59
2022/12/12 00:09:51;;;;;;;;;;;;;;;;;;5058430;28;19913;-58
2022/12/12 00:12:17;;;;;;;;;;;;;;;;;;5096299;28;19916;-58
2022/12/12 00:14:42;;;;;;;;;;;;;;;;;;5069316;28;19916;-58
2022/12/12 00:17:07;;;;;;;;;;;;;;;;;;5081750;28;19912;-57
2022/12/12 00:19:32;;;;;;;;;;;;;;;;;;5072238;28;19938;-58
2022/12/12 00:21:57;;;;;;;;;;;;;;;;;;5068739;28;20427;-58
2022/12/12 00:24:22;;;;;;;;;;;;;;;;;;5069233;28;20546;-58
2022/12/12 00:26:47;;;;;;;;;;;;;;;;;;5062819;28;19913;-58
2022/12/12 00:29:13;;;;;;;;;;;;;;;;;;5070198;28;20407;-58
2022/12/12 00:31:38;;;;;;;;;;;;;;;;;;5071431;28;19958;-59
2022/12/12 00:34:03;;;;;;;;;;;;;;;;;;5066740;28;19924;-59
2022/12/12 00:36:28;;;;;;;;;;;;;;;;;;5074525;28;19970;-58
2022/12/12 00:38:53;;;;;;;;;;;;;;;;;;5065286;28;19965;-58
2022/12/12 00:41:18;;;;;;;;;;;;;;;;;;5058626;28;20289;-58
2022/12/12 00:43:43;;;;;;;;;;;;;;;;;;5068958;28;20003;-58
2022/12/12 00:46:08;;;;;;;;;;;;;;;;;;5106624;27;19912;-57
2022/12/12 00:48:34;;;;;;;;;;;;;;;;;;5076474;28;19908;-59
2022/12/12 00:50:59;;;;;;;;;;;;;;;;;;5068630;28;19977;-58
2022/12/12 00:53:24;;;;;;;;;;;;;;;;;;5072591;28;20319;-59
2022/12/12 00:55:49;;;;;;;;;;;;;;;;;;5066317;28;20269;-56
2022/12/12 00:58:14;;;;;;;;;;;;;;;;;;5063802;28;19987;-56
2022/12/12 01:00:40;;;;;;;;;;;;;;;;;;5078622;28;19913;-58
2022/12/12 01:03:05;;;;;;;;;;;;;;;;;;5069499;28;19909;-58
2022/12/12 01:05:30;;;;;;;;;;;;;;;;;;5069228;28;19913;-58
2022/12/12 01:07:55;;;;;;;;;;;;;;;;;;5065977;28;19909;-58
2022/12/12 01:10:21;;;;;;;;;;;;;;;;;;5095503;27;19916;-58
2022/12/12 01:12:46;;;;;;;;;;;;;;;;;;5066297;28;19935;-59
2022/12/12 01:15:11;;;;;;;;;;;;;;;;;;5087807;28;19913;-58
2022/12/12 01:17:36;;;;;;;;;;;;;;;;;;5067791;28;20015;-58
2022/12/12 01:20:02;;;;;;;;;;;;;;;;;;5067361;28;19927;-58
2022/12/12 01:22:27;;;;;;;;;;;;;;;;;;5076347;28;19916;-58
2022/12/12 01:24:55;;;;;;;;;;;;;;;;;;5067819;28;20308;-58
2022/12/12 01:27:20;;;;;;;;;;;;;;;;;;5064518;28;19917;-58
2022/12/12 01:29:46;;;;;;;;;;;;;;;;;;5066177;28;19958;-57
2022/12/12 01:32:11;;;;;;;;;;;;;;;;;;5071201;28;20356;-56
2022/12/12 01:34:36;;;;;;;;;;;;;;;;;;5066974;28;19920;-58
2022/12/12 01:37:01;;;;;;;;;;;;;;;;;;5062970;28;19912;-59
2022/12/12 01:39:26;;;;;;;;;;;;;;;;;;5074806;28;19926;-58
2022/12/12 01:41:51;;;;;;;;;;;;;;;;;;5101601;27;19963;-58
2022/12/12 01:44:16;;;;;;;;;;;;;;;;;;5073418;28;19916;-58
2022/12/12 01:46:42;;;;;;;;;;;;;;;;;;5092184;28;19916;-60
2022/12/12 01:49:07;;;;;;;;;;;;;;;;;;5077132;28;19916;-59
2022/12/12 01:51:32;;;;;;;;;;;;;;;;;;5071757;28;20005;-57
2022/12/12 01:53:58;;;;;;;;;;;;;;;;;;5102546;27;19986;-59
2022/12/12 01:56:23;;;;;;;;;;;;;;;;;;5107827;28;19912;-58
2022/12/12 01:58:48;;;;;;;;;;;;;;;;;;5079443;28;20381;-57
2022/12/12 02:01:13;;;;;;;;;;;;;;;;;;5075409;28;19920;-59
2022/12/12 02:03:38;;;;;;;;;;;;;;;;;;5076232;28;20441;-59
2022/12/12 02:06:03;;;;;;;;;;;;;;;;;;5076605;28;20393;-57
2022/12/12 02:08:28;;;;;;;;;;;;;;;;;;5075159;28;19981;-58
2022/12/12 02:10:53;;;;;;;;;;;;;;;;;;5104297;27;19923;-57
2022/12/12 02:13:19;;;;;;;;;;;;;;;;;;5070701;28;19916;-58
2022/12/12 02:15:44;;;;;;;;;;;;;;;;;;5073022;28;20054;-57
2022/12/12 02:18:09;;;;;;;;;;;;;;;;;;5077579;28;19944;-57
2022/12/12 02:20:34;;;;;;;;;;;;;;;;;;5074558;28;20113;-59
2022/12/12 02:22:59;;;;;;;;;;;;;;;;;;5073773;28;20331;-58
2022/12/12 02:25:24;;;;;;;;;;;;;;;;;;5075567;28;20381;-58
2022/12/12 02:27:49;;;;;;;;;;;;;;;;;;5080208;28;20463;-58
2022/12/12 02:30:15;;;;;;;;;;;;;;;;;;5081080;28;20383;-59
2022/12/12 02:32:40;;;;;;;;;;;;;;;;;;5076013;28;19912;-58
2022/12/12 02:35:05;;;;;;;;;;;;;;;;;;5104673;27;19916;-57
2022/12/12 02:37:30;;;;;;;;;;;;;;;;;;5069171;28;19943;-58
2022/12/12 02:39:55;;;;;;;;;;;;;;;;;;5102386;27;19977;-59
2022/12/12 02:42:20;;;;;;;;;;;;;;;;;;5073243;28;19920;-58
2022/12/12 02:44:45;;;;;;;;;;;;;;;;;;5071747;28;19928;-59
2022/12/12 02:47:10;;;;;;;;;;;;;;;;;;5080359;28;19935;-59
2022/12/12 02:49:36;;;;;;;;;;;;;;;;;;5070599;28;20270;-58
2022/12/12 02:52:01;;;;;;;;;;;;;;;;;;5072701;28;20351;-58
2022/12/12 02:54:26;;;;;;;;;;;;;;;;;;5063743;28;19916;-56
2022/12/12 02:56:51;;;;;;;;;;;;;;;;;;5072026;28;20270;-58
2022/12/12 02:59:17;;;;;;;;;;;;;;;;;;5071217;28;20435;-57
2022/12/12 03:01:42;;;;;;;;;;;;;;;;;;5069566;28;19966;-57
2022/12/12 03:09:35;;;;;;;;;;;;;;;;;;5070950;28;19923;-57
2022/12/12 03:12:00;;;;;;;;;;;;;;;;;;5106412;27;20315;-58
2022/12/12 03:14:25;;;;;;;;;;;;;;;;;;5069735;28;20364;-58
2022/12/12 03:16:50;;;;;;;;;;;;;;;;;;5066504;28;19924;-57
2022/12/12 03:19:16;;;;;;;;;;;;;;;;;;5097631;28;19908;-57
2022/12/12 03:21:41;;;;;;;;;;;;;;;;;;5058094;28;19920;-57
2022/12/12 03:24:06;;;;;;;;;;;;;;;;;;5060562;28;20334;-57
2022/12/12 03:26:31;;;;;;;;;;;;;;;;;;5067858;28;19913;-58
2022/12/12 03:28:56;;;;;;;;;;;;;;;;;;5069219;28;20517;-58
2022/12/12 03:31:21;;;;;;;;;;;;;;;;;;5063223;28;19912;-58
2022/12/12 03:33:47;;;;;;;;;;;;;;;;;;5062228;28;19925;-59
2022/12/12 03:36:12;;;;;;;;;;;;;;;;;;5101804;28;20369;-58
2022/12/12 03:38:37;;;;;;;;;;;;;;;;;;5067192;28;20373;-58
2022/12/12 03:41:02;;;;;;;;;;;;;;;;;;5065873;28;19969;-58
2022/12/12 03:43:27;;;;;;;;;;;;;;;;;;5093681;27;19952;-57
2022/12/12 03:45:52;;;;;;;;;;;;;;;;;;5069893;28;20033;-56
2022/12/12 03:48:17;;;;;;;;;;;;;;;;;;5070982;28;20389;-59
2022/12/12 03:50:43;;;;;;;;;;;;;;;;;;5063518;28;19913;-58
2022/12/12 03:53:08;;;;;;;;;;;;;;;;;;5095524;28;19926;-58
2022/12/12 03:55:33;;;;;;;;;;;;;;;;;;5075130;28;19912;-59
2022/12/12 03:57:58;;;;;;;;;;;;;;;;;;5104327;27;19913;-59
2022/12/12 04:00:23;;;;;;;;;;;;;;;;;;5071316;28;20113;-58
2022/12/12 04:02:50;;;;;;;;;;;;;;;;;;5064679;28;19923;-59
2022/12/12 04:05:15;;;;;;;;;;;;;;;;;;5057905;28;19956;-56
2022/12/12 04:07:40;;;;;;;;;;;;;;;;;;5066832;28;20442;-58
2022/12/12 04:12:59;;;;;;;;;;;;;;;;;;5061296;28;20610;-57
2022/12/12 04:15:24;;;;;;;;;;;;;;;;;;5074725;28;20015;-57
2022/12/12 04:17:49;;;;;;;;;;;;;;;;;;5075585;28;19992;-58
2022/12/12 04:23:17;;;;;;;;;;;;;;;;;;5070964;28;20333;-60
2022/12/12 04:26:37;;;;;;;;;;;;;;;;;;5098196;27;19974;-58
2022/12/12 04:28:27;;;;;;;;;;;;;;;;;;5080269;28;19964;-58
2022/12/12 04:30:52;;;;;;;;;;;;;;;;;;5071437;28;19944;-55
2022/12/12 04:33:17;;;;;;;;;;;;;;;;;;5069306;28;19965;-58
2022/12/12 04:35:42;;;;;;;;;;;;;;;;;;5072679;28;19916;-58
2022/12/12 04:38:07;;;;;;;;;;;;;;;;;;5068345;28;20369;-58
2022/12/12 04:40:32;;;;;;;;;;;;;;;;;;5063552;28;20405;-58
2022/12/12 04:42:58;;;;;;;;;;;;;;;;;;5074423;28;19916;-57
2022/12/12 04:45:23;;;;;;;;;;;;;;;;;;5062023;28;20016;-57
2022/12/12 04:47:50;;;;;;;;;;;;;;;;;;5071465;28;19967;-58
2022/12/12 04:50:16;;;;;;;;;;;;;;;;;;5059711;28;19917;-58
2022/12/12 04:52:41;;;;;;;;;;;;;;;;;;5081619;28;20372;-58
2022/12/12 04:55:06;;;;;;;;;;;;;;;;;;5065707;28;19962;-58
2022/12/12 04:57:31;;;;;;;;;;;;;;;;;;5069274;28;19913;-58
2022/12/12 04:59:56;;;;;;;;;;;;;;;;;;5068976;28;20377;-58
2022/12/12 05:02:21;;;;;;;;;;;;;;;;;;5097269;27;19916;-56
2022/12/12 05:04:47;;;;;;;;;;;;;;;;;;5099633;28;19912;-58
2022/12/12 05:07:12;;;;;;;;;;;;;;;;;;5076570;28;19935;-57
2022/12/12 05:09:37;;;;;;;;;;;;;;;;;;5065422;28;20376;-59
2022/12/12 05:12:02;;;;;;;;;;;;;;;;;;5062324;28;20003;-58
2022/12/12 05:14:27;;;;;;;;;;;;;;;;;;5063898;28;20471;-58
2022/12/12 05:16:52;;;;;;;;;;;;;;;;;;5074155;28;19922;-58
2022/12/12 05:19:17;;;;;;;;;;;;;;;;;;5067051;28;20191;-57
2022/12/12 05:21:43;;;;;;;;;;;;;;;;;;5068529;28;20326;-58
2022/12/12 05:24:08;;;;;;;;;;;;;;;;;;5102790;27;20408;-59
2022/12/12 05:26:33;;;;;;;;;;;;;;;;;;5093808;28;19913;-53
2022/12/12 05:28:58;;;;;;;;;;;;;;;;;;5071352;28;19970;-58
2022/12/12 05:31:23;;;;;;;;;;;;;;;;;;5055994;28;19921;-58
2022/12/12 05:33:48;;;;;;;;;;;;;;;;;;5054606;28;19946;-57
2022/12/12 05:36:13;;;;;;;;;;;;;;;;;;5060014;28;20272;-56
2022/12/12 05:38:39;;;;;;;;;;;;;;;;;;5073617;28;20368;-59
2022/12/12 05:41:04;;;;;;;;;;;;;;;;;;5066032;28;20372;-59
2022/12/12 05:43:29;;;;;;;;;;;;;;;;;;5092783;28;19916;-56
2022/12/12 05:45:54;;;;;;;;;;;;;;;;;;5073306;28;19919;-57
2022/12/12 05:48:19;;;;;;;;;;;;;;;;;;5066750;28;19966;-59
2022/12/12 05:50:44;;;;;;;;;;;;;;;;;;5068039;28;19919;-59
2022/12/12 05:53:10;;;;;;;;;;;;;;;;;;5057418;28;19963;-58
2022/12/12 05:55:35;;;;;;;;;;;;;;;;;;5096235;28;20392;-57
2022/12/12 05:58:00;;;;;;;;;;;;;;;;;;5057961;28;20018;-58
2022/12/12 06:00:25;;;;;;;;;;;;;;;;;;5058582;28;19913;-58
2022/12/12 06:02:50;;;;;;;;;;;;;;;;;;5056132;28;20010;-59
2022/12/12 06:05:15;;;;;;;;;;;;;;;;;;5060380;28;20009;-57
2022/12/12 06:07:41;;;;;;;;;;;;;;;;;;5063103;28;19933;-58
2022/12/12 06:10:06;;;;;;;;;;;;;;;;;;5097784;28;19925;-58
2022/12/12 06:12:31;;;;;;;;;;;;;;;;;;5099378;28;19919;-56
2022/12/12 06:14:56;;;;;;;;;;;;;;;;;;5066848;28;20028;-57
2022/12/12 06:17:21;;;;;;;;;;;;;;;;;;5070852;28;19916;-57
2022/12/12 06:19:46;;;;;;;;;;;;;;;;;;5061349;28;19997;-58
2022/12/12 06:22:11;;;;;;;;;;;;;;;;;;5070370;28;19912;-57
2022/12/12 06:24:37;;;;;;;;;;;;;;;;;;5062333;28;19920;-57
2022/12/12 06:27:02;;;;;;;;;;;;;;;;;;5072369;28;19913;-59
2022/12/12 06:29:27;;;;;;;;;;;;;;;;;;5102660;27;19975;-58
2022/12/12 06:31:52;;;;;;;;;;;;;;;;;;5074847;28;19962;-58
2022/12/12 06:34:17;;;;;;;;;;;;;;;;;;5073130;28;19920;-56
2022/12/12 06:36:42;;;;;;;;;;;;;;;;;;5076484;28;19950;-59
2022/12/12 06:39:08;;;;;;;;;;;;;;;;;;5112133;27;19912;-58
2022/12/12 06:41:33;;;;;;;;;;;;;;;;;;5076679;28;20006;-55
2022/12/12 06:43:59;;;;;;;;;;;;;;;;;;5104842;27;19971;-56
2022/12/12 06:46:24;;;;;;;;;;;;;;;;;;5070078;28;19913;-57
2022/12/12 06:48:49;;;;;;;;;;;;;;;;;;5102681;27;19999;-58
2022/12/12 06:51:14;;;;;;;;;;;;;;;;;;5072691;28;19991;-57
2022/12/12 06:53:40;;;;;;;;;;;;;;;;;;5070951;28;19944;-58
2022/12/12 06:56:05;;;;;;;;;;;;;;;;;;5072583;28;19959;-59
2022/12/12 06:58:30;;;;;;;;;;;;;;;;;;5071983;28;19913;-58
2022/12/12 07:00:55;;;;;;;;;;;;;;;;;;5076809;28;20277;-58
2022/12/12 07:03:20;;;;;;;;;;;;;;;;;;5079282;28;20027;-55
2022/12/12 07:05:46;;;;;;;;;;;;;;;;;;5063960;28;19916;-59
2022/12/12 07:08:11;;;;;;;;;;;;;;;;;;5069853;28;19913;-59
2022/12/12 07:10:36;;;;;;;;;;;;;;;;;;5070200;28;19916;-58
2022/12/12 07:13:01;;;;;;;;;;;;;;;;;;5070986;28;20440;-60
2022/12/12 07:15:26;;;;;;;;;;;;;;;;;;5078530;28;19916;-61
2022/12/12 07:17:52;;;;;;;;;;;;;;;;;;5092373;28;19908;-60
2022/12/12 07:20:17;;;;;;;;;;;;;;;;;;5084251;28;19919;-60
2022/12/12 07:22:42;;;;;;;;;;;;;;;;;;5083749;28;20009;-61
2022/12/12 07:25:08;;;;;;;;;;;;;;;;;;5105107;28;19917;-61
2022/12/12 07:27:33;;;;;;;;;;;;;;;;;;5074257;28;19916;-60
2022/12/12 07:29:58;;;;;;;;;;;;;;;;;;5105786;28;19968;-60
2022/12/12 07:32:23;;;;;;;;;;;;;;;;;;5075368;28;19967;-61
2022/12/12 07:34:48;;;;;;;;;;;;;;;;;;5073894;28;19921;-60
2022/12/12 07:37:14;;;;;;;;;;;;;;;;;;5090177;28;19912;-61
2022/12/12 07:39:39;;;;;;;;;;;;;;;;;;5089159;28;20410;-60
2022/12/12 07:42:04;;;;;;;;;;;;;;;;;;5086140;28;19958;-60
2022/12/12 07:44:29;;;;;;;;;;;;;;;;;;5077152;28;19916;-60
2022/12/12 07:46:54;;;;;;;;;;;;;;;;;;5071511;28;19956;-60
2022/12/12 07:49:20;;;;;;;;;;;;;;;;;;5088181;28;20265;-61
2022/12/12 07:51:45;;;;;;;;;;;;;;;;;;5080388;28;19913;-61
2022/12/12 07:54:10;;;;;;;;;;;;;;;;;;5078174;28;19916;-61
2022/12/12 07:56:35;;;;;;;;;;;;;;;;;;5094217;28;19930;-61
2022/12/12 07:59:00;;;;;;;;;;;;;;;;;;5093231;28;19951;-60
2022/12/12 08:01:25;;;;;;;;;;;;;;;;;;5083819;28;19970;-60
2022/12/12 08:03:50;;;;;;;;;;;;;;;;;;5069437;28;19918;-61
2022/12/12 08:06:16;;;;;;;;;;;;;;;;;;5077272;28;19958;-60
2022/12/12 08:08:41;;;;;;;;;;;;;;;;;;5071523;28;19913;-60
2022/12/12 08:11:06;;;;;;;;;;;;;;;;;;5072427;28;19916;-60
2022/12/12 08:13:31;;;;;;;;;;;;;;;;;;5074658;28;19916;-61
2022/12/12 08:15:56;;;;;;;;;;;;;;;;;;5072252;28;19917;-60
2022/12/12 08:18:21;;;;;;;;;;;;;;;;;;5070211;28;19971;-60
2022/12/12 08:20:46;;;;;;;;;;;;;;;;;;5081761;28;19980;-60
2022/12/12 08:23:12;;;;;;;;;;;;;;;;;;5084991;28;19912;-61
2022/12/12 08:25:37;;;;;;;;;;;;;;;;;;5090070;28;19915;-60
2022/12/12 08:28:02;;;;;;;;;;;;;;;;;;5072415;28;19970;-60
2022/12/12 08:30:27;;;;;;;;;;;;;;;;;;5073017;28;20392;-61
2022/12/12 08:32:52;;;;;;;;;;;;;;;;;;5074423;28;19913;-61
2022/12/12 08:35:17;;;;;;;;;;;;;;;;;;5084024;28;20446;-60
2022/12/12 08:37:43;;;;;;;;;;;;;;;;;;5092628;28;20376;-60
2022/12/12 08:40:08;;;;;;;;;;;;;;;;;;5092319;28;19916;-60
2022/12/12 08:42:33;;;;;;;;;;;;;;;;;;5082583;28;19973;-60
2022/12/12 08:44:58;;;;;;;;;;;;;;;;;;5072438;28;19927;-59
2022/12/12 08:47:23;;;;;;;;;;;;;;;;;;5073155;28;19944;-60
2022/12/12 08:49:49;;;;;;;;;;;;;;;;;;5069153;28;19913;-60
2022/12/12 08:52:14;;;;;;;;;;;;;;;;;;5072090;28;19912;-61
2022/12/12 08:54:39;;;;;;;;;;;;;;;;;;5101004;27;19967;-60
2022/12/12 08:57:04;;;;;;;;;;;;;;;;;;5070631;28;19912;-60
2022/12/12 08:59:29;;;;;;;;;;;;;;;;;;5066483;28;20365;-60
2022/12/12 09:01:54;;;;;;;;;;;;;;;;;;5068489;28;20431;-60
2022/12/12 09:04:20;;;;;;;;;;;;;;;;;;5074186;28;19927;-59
2022/12/12 09:06:45;;;;;;;;;;;;;;;;;;5063645;28;20023;-61
2022/12/12 09:09:10;;;;;;;;;;;;;;;;;;5069146;28;19920;-61
2022/12/12 09:11:35;;;;;;;;;;;;;;;;;;5058918;28;19913;-61
2022/12/12 09:14:00;;;;;;;;;;;;;;;;;;5068434;28;19916;-61
2022/12/12 09:16:28;;;;;;;;;;;;;;;;;;5068038;28;19921;-61
2022/12/12 09:18:53;;;;;;;;;;;;;;;;;;5074712;28;19908;-61
2022/12/12 09:21:19;;;;;;;;;;;;;;;;;;5070105;28;20454;-60
2022/12/12 09:23:44;;;;;;;;;;;;;;;;;;5072223;28;19913;-60
2022/12/12 09:26:09;;;;;;;;;;;;;;;;;;5069915;28;19916;-59
2022/12/12 09:28:34;;;;;;;;;;;;;;;;;;5072502;28;19977;-60
2022/12/12 09:30:59;;;;;;;;;;;;;;;;;;5075950;28;19912;-60
2022/12/12 09:33:24;;;;;;;;;;;;;;;;;;5069680;28;19947;-60
2022/12/12 09:35:49;;;;;;;;;;;;;;;;;;5074856;28;19998;-60
2022/12/12 09:38:17;;;;;;;;;;;;;;;;;;5067976;28;20261;-61
2022/12/12 09:40:42;;;;;;;;;;;;;;;;;;5069381;28;19913;-61
2022/12/12 09:43:07;;;;;;;;;;;;;;;;;;5065641;28;19982;-60
2022/12/12 09:45:32;;;;;;;;;;;;;;;;;;5070907;28;19993;-60
2022/12/12 09:47:57;;;;;;;;;;;;;;;;;;5072437;28;20443;-59
2022/12/12 09:50:26;;;;;;;;;;;;;;;;;;5114533;28;19920;-60
2022/12/12 09:52:51;;;;;;;;;;;;;;;;;;5096927;28;19919;-60
2022/12/12 09:55:16;;;;;;;;;;;;;;;;;;5071282;28;19916;-59
2022/12/12 09:57:41;;;;;;;;;;;;;;;;;;5073033;28;19912;-60
2022/12/12 10:00:08;;;;;;;;;;;;;;;;;;5075220;28;19917;-60
2022/12/12 10:02:33;;;;;;;;;;;;;;;;;;5068709;28;19912;-61
2022/12/12 10:04:58;;;;;;;;;;;;;;;;;;5088599;28;19935;-61
2022/12/12 10:07:23;;;;;;;;;;;;;;;;;;5067890;28;20358;-61
2022/12/12 10:09:48;;;;;;;;;;;;;;;;;;5072699;28;20033;-60
2022/12/12 10:12:13;;;;;;;;;;;;;;;;;;5093885;28;20036;-60
2022/12/12 10:14:39;;;;;;;;;;;;;;;;;;5081978;28;20369;-60
2022/12/12 10:17:04;;;;;;;;;;;;;;;;;;5079841;28;20349;-60
2022/12/12 10:19:29;;;;;;;;;;;;;;;;;;5077328;28;20411;-60
2022/12/12 10:21:54;;;;;;;;;;;;;;;;;;5089669;28;19918;-60
2022/12/12 10:24:19;;;;;;;;;;;;;;;;;;5091353;28;20434;-60
2022/12/12 10:26:45;;;;;;;;;;;;;;;;;;5091719;28;19919;-60
2022/12/12 10:29:10;;;;;;;;;;;;;;;;;;5095641;28;19916;-61
2022/12/12 10:31:35;;;;;;;;;;;;;;;;;;5078615;28;20402;-60
2022/12/12 10:34:00;;;;;;;;;;;;;;;;;;5075192;28;19916;-60
2022/12/12 10:36:25;;;;;;;;;;;;;;;;;;5088305;28;20035;-61
2022/12/12 10:38:50;;;;;;;;;;;;;;;;;;5126966;27;19996;-61
2022/12/12 10:41:16;;;;;;;;;;;;;;;;;;5083630;28;19927;-61
2022/12/12 10:43:41;;;;;;;;;;;;;;;;;;5073259;28;19920;-59
2022/12/12 10:46:06;;;;;;;;;;;;;;;;;;5077529;28;20382;-60
2022/12/12 10:48:31;;;;;;;;;;;;;;;;;;5095196;28;20011;-60
2022/12/12 10:50:56;;;;;;;;;;;;;;;;;;5074972;28;19916;-60
2022/12/12 10:53:21;;;;;;;;;;;;;;;;;;5078508;28;20379;-60
2022/12/12 10:55:47;;;;;;;;;;;;;;;;;;5095291;28;19924;-60
2022/12/12 10:58:15;;;;;;;;;;;;;;;;;;5092141;28;19912;-60
2022/12/12 11:00:41;;;;;;;;;;;;;;;;;;5090645;28;20004;-60
2022/12/12 11:03:06;;;;;;;;;;;;;;;;;;5087885;28;20352;-61
2022/12/12 11:05:31;;;;;;;;;;;;;;;;;;5094763;28;20287;-60
2022/12/12 11:07:56;;;;;;;;;;;;;;;;;;5093161;28;20323;-60
2022/12/12 11:10:21;;;;;;;;;;;;;;;;;;5094158;28;19950;-60
2022/12/12 11:12:46;;;;;;;;;;;;;;;;;;5080233;28;19920;-60
2022/12/12 11:15:12;;;;;;;;;;;;;;;;;;5072688;28;19923;-60
2022/12/12 11:17:37;;;;;;;;;;;;;;;;;;5078910;28;19916;-61
2022/12/12 11:20:02;;;;;;;;;;;;;;;;;;5074309;28;20289;-60
2022/12/12 11:22:28;;;;;;;;;;;;;;;;;;5079989;28;20414;-60
2022/12/12 11:24:53;;;;;;;;;;;;;;;;;;5076079;28;20377;-60
2022/12/12 11:27:18;;;;;;;;;;;;;;;;;;5092077;28;19956;-61
2022/12/12 11:29:43;;;;;;;;;;;;;;;;;;5091203;28;19924;-60
2022/12/12 11:32:08;;;;;;;;;;;;;;;;;;5074881;28;20315;-60
2022/12/12 11:34:33;;;;;;;;;;;;;;;;;;5087820;28;19941;-60
2022/12/12 11:36:58;;;;;;;;;;;;;;;;;;5105895;28;19912;-60
2022/12/12 11:39:23;;;;;;;;;;;;;;;;;;5073739;28;19916;-61
2022/12/12 11:41:49;;;;;;;;;;;;;;;;;;5074394;28;19919;-61
2022/12/12 11:44:14;;;;;;;;;;;;;;;;;;5071455;28;19913;-61
2022/12/12 11:46:39;;;;;;;;;;;;;;;;;;5081590;28;19920;-59
2022/12/12 11:49:04;;;;;;;;;;;;;;;;;;5090668;28;19912;-61
2022/12/12 11:51:29;;;;;;;;;;;;;;;;;;5092691;28;19982;-61
2022/12/12 11:53:54;;;;;;;;;;;;;;;;;;5075354;28;19920;-61
2022/12/12 11:56:19;;;;;;;;;;;;;;;;;;5072826;28;19947;-59
2022/12/12 11:58:44;;;;;;;;;;;;;;;;;;5073917;28;19908;-60
2022/12/12 12:01:10;;;;;;;;;;;;;;;;;;5076902;28;19916;-60
2022/12/12 12:03:35;;;;;;;;;;;;;;;;;;5073988;28;19908;-60
2022/12/12 12:06:00;;;;;;;;;;;;;;;;;;5071744;28;20376;-60
2022/12/12 12:08:26;;;;;;;;;;;;;;;;;;5073267;28;20045;-60
2022/12/12 12:10:51;;;;;;;;;;;;;;;;;;5077244;28;19966;-60
2022/12/12 12:13:16;;;;;;;;;;;;;;;;;;5073981;28;19920;-59
2022/12/12 12:15:41;;;;;;;;;;;;;;;;;;5068691;28;19959;-60
2022/12/12 12:18:06;;;;;;;;;;;;;;;;;;5072246;28;19958;-61
2022/12/12 12:20:31;;;;;;;;;;;;;;;;;;5070787;28;19981;-66
2022/12/12 12:22:56;;;;;;;;;;;;;;;;;;5102085;28;19921;-62
2022/12/12 12:25:22;;;;;;;;;;;;;;;;;;5077631;28;19958;-59
2022/12/12 12:27:47;;;;;;;;;;;;;;;;;;5068329;28;20418;-62
2022/12/12 12:30:12;;;;;;;;;;;;;;;;;;5106210;27;20379;-59
2022/12/12 12:32:37;;;;;;;;;;;;;;;;;;5102130;27;20682;-59
2022/12/12 12:35:02;;;;;;;;;;;;;;;;;;5076827;28;19920;-61
2022/12/12 12:37:27;;;;;;;;;;;;;;;;;;5071390;28;19924;-60
2022/12/12 12:39:52;;;;;;;;;;;;;;;;;;5070768;28;19912;-58
2022/12/12 12:42:17;;;;;;;;;;;;;;;;;;5070349;28;20144;-60
2022/12/12 12:44:43;;;;;;;;;;;;;;;;;;5073077;28;19920;-63
2022/12/12 12:47:08;;;;;;;;;;;;;;;;;;5106052;28;19920;-62
2022/12/12 12:49:33;;;;;;;;;;;;;;;;;;5079027;28;19909;-63
2022/12/12 12:51:58;;;;;;;;;;;;;;;;;;5104269;27;19920;-64
2022/12/12 12:54:24;;;;;;;;;;;;;;;;;;5103698;27;19923;-66
2022/12/12 12:56:49;;;;;;;;;;;;;;;;;;5107998;27;19970;-64
2022/12/12 12:59:15;;;;;;;;;;;;;;;;;;5069845;28;19909;-64
2022/12/12 13:01:40;;;;;;;;;;;;;;;;;;5069068;28;19958;-65
2022/12/12 13:04:05;;;;;;;;;;;;;;;;;;5070598;28;20303;-65
2022/12/12 13:06:30;;;;;;;;;;;;;;;;;;5070779;28;19958;-63
2022/12/12 13:08:55;;;;;;;;;;;;;;;;;;5073180;28;19912;-62
2022/12/12 13:11:20;;;;;;;;;;;;;;;;;;5107032;27;19923;-63
2022/12/12 13:13:45;;;;;;;;;;;;;;;;;;5061461;28;19962;-65
2022/12/12 13:16:11;;;;;;;;;;;;;;;;;;5060176;28;20037;-65
2022/12/12 13:18:36;;;;;;;;;;;;;;;;;;5070656;28;19966;-67
2022/12/12 13:21:01;;;;;;;;;;;;;;;;;;5071965;28;20324;-66
2022/12/12 13:23:26;;;;;;;;;;;;;;;;;;5073600;28;20331;-63
2022/12/12 13:25:51;;;;;;;;;;;;;;;;;;5071482;28;19960;-64
2022/12/12 13:28:16;;;;;;;;;;;;;;;;;;5072148;28;19923;-66
2022/12/12 13:30:41;;;;;;;;;;;;;;;;;;5073866;28;19927;-63
2022/12/12 13:33:06;;;;;;;;;;;;;;;;;;5076951;28;20390;-63
2022/12/12 13:35:32;;;;;;;;;;;;;;;;;;5079018;28;19974;-65
2022/12/12 13:37:57;;;;;;;;;;;;;;;;;;5090707;28;19915;-64
2022/12/12 13:40:22;;;;;;;;;;;;;;;;;;5085950;28;20380;-65
2022/12/12 13:42:47;;;;;;;;;;;;;;;;;;5073163;28;19913;-63
2022/12/12 13:45:13;;;;;;;;;;;;;;;;;;5067729;28;20392;-61
2022/12/12 13:47:38;;;;;;;;;;;;;;;;;;5071867;28;19999;-64
2022/12/12 13:50:03;;;;;;;;;;;;;;;;;;5112606;28;19912;-61
2022/12/12 13:52:28;;;;;;;;;;;;;;;;;;5073543;28;19916;-62
2022/12/12 13:54:53;;;;;;;;;;;;;;;;;;5110791;28;19921;-61
2022/12/12 13:57:18;;;;;;;;;;;;;;;;;;5109423;28;19917;-61
2022/12/12 13:59:44;;;;;;;;;;;;;;;;;;5079946;28;20353;-62
2022/12/12 14:02:09;;;;;;;;;;;;;;;;;;5108063;28;19912;-63
2022/12/12 14:04:34;;;;;;;;;;;;;;;;;;5071162;28;20019;-61
2022/12/12 14:06:59;;;;;;;;;;;;;;;;;;5068809;28;19917;-65
2022/12/12 14:09:24;;;;;;;;;;;;;;;;;;5106083;28;19912;-61
2022/12/12 14:11:49;;;;;;;;;;;;;;;;;;5098363;28;19921;-62
2022/12/12 14:14:14;;;;;;;;;;;;;;;;;;5093019;28;19999;-63
2022/12/12 14:16:39;;;;;;;;;;;;;;;;;;5080204;28;19956;-62
2022/12/12 14:19:05;;;;;;;;;;;;;;;;;;5086186;28;19912;-62
2022/12/12 14:21:30;;;;;;;;;;;;;;;;;;5104087;28;19927;-59
2022/12/12 14:23:55;;;;;;;;;;;;;;;;;;5110259;28;19913;-62
2022/12/12 14:26:20;;;;;;;;;;;;;;;;;;5062924;28;20011;-61
2022/12/12 14:28:45;;;;;;;;;;;;;;;;;;5053996;28;19917;-64
2022/12/12 14:31:11;;;;;;;;;;;;;;;;;;5079400;28;19916;-61
2022/12/12 14:33:36;;;;;;;;;;;;;;;;;;5102931;28;19916;-59
2022/12/12 14:36:01;;;;;;;;;;;;;;;;;;5068681;28;19914;-60
2022/12/12 14:38:26;;;;;;;;;;;;;;;;;;5071112;28;19913;-61
2022/12/12 14:40:51;;;;;;;;;;;;;;;;;;5077044;28;20360;-60
2022/12/12 14:43:17;;;;;;;;;;;;;;;;;;5114283;28;19926;-60
2022/12/12 14:45:42;;;;;;;;;;;;;;;;;;5071777;28;19999;-60
2022/12/12 14:48:07;;;;;;;;;;;;;;;;;;5070308;28;20501;-60
2022/12/12 14:50:32;;;;;;;;;;;;;;;;;;5075346;28;19908;-63
2022/12/12 14:52:57;;;;;;;;;;;;;;;;;;5081314;28;19929;-60
2022/12/12 14:55:22;;;;;;;;;;;;;;;;;;5082284;28;20365;-61
2022/12/12 14:57:48;;;;;;;;;;;;;;;;;;5076641;28;20429;-59
2022/12/12 15:00:13;;;;;;;;;;;;;;;;;;5127533;27;20416;-58
2022/12/12 15:02:38;;;;;;;;;;;;;;;;;;5075725;28;20232;-63
2022/12/12 15:05:03;;;;;;;;;;;;;;;;;;5105657;27;19970;-60
2022/12/12 15:07:28;;;;;;;;;;;;;;;;;;5077635;28;19920;-59
2022/12/12 15:09:54;;;;;;;;;;;;;;;;;;5082589;28;19946;-59
2022/12/12 15:12:19;;;;;;;;;;;;;;;;;;5113128;27;19913;-60
2022/12/12 15:14:44;;;;;;;;;;;;;;;;;;5080992;28;19956;-60
2022/12/12 15:17:09;;;;;;;;;;;;;;;;;;5081653;28;19920;-60
2022/12/12 15:19:34;;;;;;;;;;;;;;;;;;5070863;28;19913;-60
2022/12/12 15:22:00;;;;;;;;;;;;;;;;;;5068344;28;19916;-60
2022/12/12 15:24:25;;;;;;;;;;;;;;;;;;5104258;27;19985;-60
2022/12/12 15:26:50;;;;;;;;;;;;;;;;;;5101827;27;20333;-57
2022/12/12 15:29:15;;;;;;;;;;;;;;;;;;5068266;28;20400;-60
2022/12/12 15:31:40;;;;;;;;;;;;;;;;;;5075441;28;19920;-59
2022/12/12 15:34:05;;;;;;;;;;;;;;;;;;5103208;27;20331;-58
2022/12/12 15:36:31;;;;;;;;;;;;;;;;;;5066639;28;20007;-59
2022/12/12 15:38:56;;;;;;;;;;;;;;;;;;5088479;28;19942;-60
2022/12/12 15:41:21;;;;;;;;;;;;;;;;;;5077641;28;19935;-60
2022/12/12 15:43:46;;;;;;;;;;;;;;;;;;5077344;28;19959;-59
2022/12/12 15:46:14;;;;;;;;;;;;;;;;;;5079648;28;19912;-59
2022/12/12 15:48:39;;;;;;;;;;;;;;;;;;5082027;28;19916;-60
2022/12/12 15:51:05;;;;;;;;;;;;;;;;;;5085134;28;19919;-60
2022/12/12 15:53:30;;;;;;;;;;;;;;;;;;5084576;28;20377;-60
2022/12/12 15:55:55;;;;;;;;;;;;;;;;;;5075083;28;20365;-60
2022/12/12 15:58:20;;;;;;;;;;;;;;;;;;5073773;28;19935;-59
2022/12/12 16:00:46;;;;;;;;;;;;;;;;;;5071601;28;19939;-60
2022/12/12 16:03:11;;;;;;;;;;;;;;;;;;5089877;28;19989;-59
2022/12/12 16:05:36;;;;;;;;;;;;;;;;;;5089416;28;19912;-56
2022/12/12 16:08:01;;;;;;;;;;;;;;;;;;5072157;28;19912;-59
2022/12/12 16:10:26;;;;;;;;;;;;;;;;;;5072278;28;19909;-60
2022/12/12 16:12:51;;;;;;;;;;;;;;;;;;5076393;28;20364;-60
2022/12/12 16:15:17;;;;;;;;;;;;;;;;;;5074638;28;19924;-59
2022/12/12 16:17:42;;;;;;;;;;;;;;;;;;5076258;28;19916;-60
2022/12/12 16:20:07;;;;;;;;;;;;;;;;;;5073006;28;20012;-60
2022/12/12 16:22:33;;;;;;;;;;;;;;;;;;5105373;27;19943;-60
2022/12/12 16:24:58;;;;;;;;;;;;;;;;;;5092458;28;19973;-59
2022/12/12 16:27:23;;;;;;;;;;;;;;;;;;5081693;28;20003;-60
2022/12/12 16:29:48;;;;;;;;;;;;;;;;;;5071670;28;20399;-59
2022/12/12 16:32:13;;;;;;;;;;;;;;;;;;5074229;28;19913;-58
2022/12/12 16:34:38;;;;;;;;;;;;;;;;;;5072087;28;19920;-60
2022/12/12 16:37:04;;;;;;;;;;;;;;;;;;5102568;28;19938;-59
2022/12/12 16:39:29;;;;;;;;;;;;;;;;;;5104405;27;19977;-59
2022/12/12 16:41:54;;;;;;;;;;;;;;;;;;5091808;28;19978;-60